sensor_id;sensor_type;location;lat;lon;timestamp;pressure;altitude;pressure_sealevel;temperature;humidity
53689;BME280;39583;54.682;30.662;2022-09-29T06:14:55;98457.31;;;8.91;100.00
53689;BME280;39583;54.682;30.662;2022-09-29T06:17:21;98465.34;;;9.14;100.00
53689;BME280;39583;54.682;30.662;2022-09-29T06:19:47;98461.69;;;9.43;100.00
53689;BME280;39583;54.682;30.662;2022-09-29T06:22:13;98460.34;;;9.69;100.00
53689;BME280;39583;54.682;30.662;2022-09-29T06:24:40;98447.06;;;9.91;100.00
53689;BME280;39583;54.682;30.662;2022-09-29T06:27:06;98458.09;;;10.07;98.88
53689;BME280;39583;54.682;30.662;2022-09-29T06:29:32;98470.94;;;10.16;98.05
53689;BME280;39583;54.682;30.662;2022-09-29T06:31:58;98473.81;;;10.26;97.50
53689;BME280;39583;54.682;30.662;2022-09-29T06:34:24;98456.22;;;10.36;97.00
53689;BME280;39583;54.682;30.662;2022-09-29T06:36:51;98472.88;;;10.49;96.75
53689;BME280;39583;54.682;30.662;2022-09-29T06:39:36;98468.25;;;10.61;96.41
53689;BME280;39583;54.682;30.662;2022-09-29T06:42:02;98475.56;;;10.66;96.08
53689;BME280;39583;54.682;30.662;2022-09-29T06:44:29;98492.00;;;10.81;95.79
53689;BME280;39583;54.682;30.662;2022-09-29T06:46:56;98476.22;;;10.90;95.39
53689;BME280;39583;54.682;30.662;2022-09-29T06:49:23;98463.56;;;10.90;95.10
53689;BME280;39583;54.682;30.662;2022-09-29T06:51:50;98466.63;;;10.94;94.66
53689;BME280;39583;54.682;30.662;2022-09-29T06:54:19;98480.53;;;10.91;94.27
53689;BME280;39583;54.682;30.662;2022-09-29T06:56:47;98481.09;;;10.93;94.14
53689;BME280;39583;54.682;30.662;2022-09-29T06:59:14;98472.06;;;10.99;94.10
53689;BME280;39583;54.682;30.662;2022-09-29T07:01:40;98476.22;;;11.07;94.05
53689;BME280;39583;54.682;30.662;2022-09-29T07:04:07;98475.53;;;11.16;93.82
53689;BME280;39583;54.682;30.662;2022-09-29T07:06:33;98476.75;;;11.26;93.45
53689;BME280;39583;54.682;30.662;2022-09-29T07:09:01;98487.28;;;11.27;93.15
53689;BME280;39583;54.682;30.662;2022-09-29T07:11:28;98498.38;;;11.31;93.17
53689;BME280;39583;54.682;30.662;2022-09-29T07:13:54;98498.72;;;11.34;93.33
53689;BME280;39583;54.682;30.662;2022-09-29T07:16:21;98498.94;;;11.33;92.72
53689;BME280;39583;54.682;30.662;2022-09-29T07:18:48;98509.00;;;11.37;93.00
53689;BME280;39583;54.682;30.662;2022-09-29T07:21:15;98506.34;;;11.42;92.65
53689;BME280;39583;54.682;30.662;2022-09-29T07:23:43;98501.88;;;11.48;92.53
53689;BME280;39583;54.682;30.662;2022-09-29T07:26:10;98506.34;;;11.59;92.62
53689;BME280;39583;54.682;30.662;2022-09-29T07:28:37;98515.09;;;11.71;92.39
53689;BME280;39583;54.682;30.662;2022-09-29T07:31:06;98515.00;;;11.83;92.21
53689;BME280;39583;54.682;30.662;2022-09-29T07:33:32;98519.03;;;12.02;92.04
53689;BME280;39583;54.682;30.662;2022-09-29T07:35:59;98524.09;;;12.21;91.84
53689;BME280;39583;54.682;30.662;2022-09-29T07:38:26;98509.50;;;12.44;91.42
53689;BME280;39583;54.682;30.662;2022-09-29T07:40:53;98515.44;;;12.73;91.01
53689;BME280;39583;54.682;30.662;2022-09-29T07:43:19;98498.84;;;12.91;89.78
53689;BME280;39583;54.682;30.662;2022-09-29T07:45:49;98514.31;;;13.00;88.99
53689;BME280;39583;54.682;30.662;2022-09-29T07:48:16;98512.47;;;13.06;88.41
53689;BME280;39583;54.682;30.662;2022-09-29T07:50:43;98508.03;;;13.22;88.80
53689;BME280;39583;54.682;30.662;2022-09-29T07:53:11;98514.34;;;13.38;88.18
53689;BME280;39583;54.682;30.662;2022-09-29T07:55:38;98501.06;;;13.31;87.27
53689;BME280;39583;54.682;30.662;2022-09-29T07:58:05;98511.69;;;13.48;87.25
53689;BME280;39583;54.682;30.662;2022-09-29T08:00:32;98515.34;;;13.69;86.76
53689;BME280;39583;54.682;30.662;2022-09-29T08:03:03;98518.13;;;13.84;86.65
53689;BME280;39583;54.682;30.662;2022-09-29T08:05:30;98509.13;;;13.73;85.27
53689;BME280;39583;54.682;30.662;2022-09-29T08:08:00;98512.91;;;13.72;85.66
53689;BME280;39583;54.682;30.662;2022-09-29T08:10:27;98517.53;;;13.77;86.07
53689;BME280;39583;54.682;30.662;2022-09-29T08:12:53;98522.66;;;13.73;86.05
53689;BME280;39583;54.682;30.662;2022-09-29T08:15:22;98518.72;;;13.44;84.88
53689;BME280;39583;54.682;30.662;2022-09-29T08:17:52;98523.94;;;13.18;85.48
53689;BME280;39583;54.682;30.662;2022-09-29T08:20:20;98529.38;;;12.91;85.30
53689;BME280;39583;54.682;30.662;2022-09-29T08:22:47;98526.59;;;12.81;86.24
53689;BME280;39583;54.682;30.662;2022-09-29T08:25:16;98530.94;;;12.87;86.63
53689;BME280;39583;54.682;30.662;2022-09-29T08:27:42;98530.72;;;13.21;86.74
53689;BME280;39583;54.682;30.662;2022-09-29T08:30:10;98515.16;;;13.38;85.29
53689;BME280;39583;54.682;30.662;2022-09-29T08:32:37;98516.28;;;13.47;84.91
53689;BME280;39583;54.682;30.662;2022-09-29T08:35:04;98526.44;;;13.67;84.88
53689;BME280;39583;54.682;30.662;2022-09-29T08:37:31;98519.69;;;13.75;83.52
53689;BME280;39583;54.682;30.662;2022-09-29T08:39:57;98519.94;;;13.73;83.39
53689;BME280;39583;54.682;30.662;2022-09-29T08:45:01;98523.44;;;13.69;82.51
53689;BME280;39583;54.682;30.662;2022-09-29T08:47:33;98533.47;;;13.68;83.02
53689;BME280;39583;54.682;30.662;2022-09-29T08:50:13;98533.13;;;13.60;82.38
53689;BME280;39583;54.682;30.662;2022-09-29T08:52:44;98528.19;;;13.51;82.62
53689;BME280;39583;54.682;30.662;2022-09-29T08:57:45;98530.97;;;13.56;81.80
53689;BME280;39583;54.682;30.662;2022-09-29T09:00:16;98522.63;;;13.68;82.27
53689;BME280;39583;54.682;30.662;2022-09-29T09:17:15;98522.22;;;14.02;79.90
53689;BME280;39583;54.682;30.662;2022-09-29T09:27:17;98519.59;;;14.22;78.62
53689;BME280;39583;54.682;30.662;2022-09-29T09:29:49;98522.81;;;14.19;78.05
53689;BME280;39583;54.682;30.662;2022-09-29T09:32:27;98521.50;;;14.22;78.27
53689;BME280;39583;54.682;30.662;2022-09-29T09:39:01;98507.25;;;14.47;77.72
53689;BME280;39583;54.682;30.662;2022-09-29T09:41:26;98501.84;;;14.62;77.26
53689;BME280;39583;54.682;30.662;2022-09-29T09:44:02;98507.25;;;14.67;76.58
53689;BME280;39583;54.682;30.662;2022-09-29T09:46:40;98493.97;;;14.70;75.81
53689;BME280;39583;54.682;30.662;2022-09-29T09:49:35;98488.31;;;14.72;75.44
53689;BME280;39583;54.682;30.662;2022-09-29T09:52:03;98494.81;;;14.76;75.40
53689;BME280;39583;54.682;30.662;2022-09-29T09:54:40;98489.13;;;14.78;74.98
53689;BME280;39583;54.682;30.662;2022-09-29T09:57:27;98495.63;;;14.77;74.79
53689;BME280;39583;54.682;30.662;2022-09-29T10:00:11;98500.22;;;14.76;74.46
53689;BME280;39583;54.682;30.662;2022-09-29T10:02:49;98492.63;;;14.78;74.62
53689;BME280;39583;54.682;30.662;2022-09-29T10:05:18;98488.31;;;14.87;74.86
53689;BME280;39583;54.682;30.662;2022-09-29T10:07:45;98492.91;;;15.07;74.58
53689;BME280;39583;54.682;30.662;2022-09-29T10:10:25;98499.13;;;15.08;73.63
53689;BME280;39583;54.682;30.662;2022-09-29T10:18:24;98510.50;;;15.40;72.81
53689;BME280;39583;54.682;30.662;2022-09-29T10:20:52;98513.72;;;15.52;72.57
53689;BME280;39583;54.682;30.662;2022-09-29T10:23:24;98516.41;;;15.57;72.43
53689;BME280;39583;54.682;30.662;2022-09-29T10:25:53;98521.03;;;15.67;71.98
53689;BME280;39583;54.682;30.662;2022-09-29T10:28:22;98515.88;;;15.71;71.95
53689;BME280;39583;54.682;30.662;2022-09-29T10:30:49;98519.09;;;15.73;71.44
53689;BME280;39583;54.682;30.662;2022-09-29T10:33:17;98522.09;;;15.71;71.31
53689;BME280;39583;54.682;30.662;2022-09-29T10:35:48;98515.59;;;15.72;71.31
53689;BME280;39583;54.682;30.662;2022-09-29T10:38:23;98516.91;;;15.90;71.47
53689;BME280;39583;54.682;30.662;2022-09-29T10:40:59;98513.03;;;16.01;70.21
53689;BME280;39583;54.682;30.662;2022-09-29T10:43:41;98519.53;;;16.05;70.70
53689;BME280;39583;54.682;30.662;2022-09-29T10:46:53;98530.09;;;16.12;70.10
53689;BME280;39583;54.682;30.662;2022-09-29T10:49:23;98524.38;;;16.13;70.05
53689;BME280;39583;54.682;30.662;2022-09-29T10:52:02;98521.19;;;15.96;69.72
53689;BME280;39583;54.682;30.662;2022-09-29T10:54:59;98527.25;;;15.73;70.32
53689;BME280;39583;54.682;30.662;2022-09-29T10:57:31;98520.75;;;15.69;70.82
53689;BME280;39583;54.682;30.662;2022-09-29T10:59:59;98522.94;;;15.61;70.77
53689;BME280;39583;54.682;30.662;2022-09-29T11:02:33;98525.94;;;15.60;70.97
53689;BME280;39583;54.682;30.662;2022-09-29T11:05:04;98517.50;;;15.61;70.60
53689;BME280;39583;54.682;30.662;2022-09-29T11:07:45;98517.22;;;15.68;69.92
53689;BME280;39583;54.682;30.662;2022-09-29T11:10:45;98517.22;;;15.78;69.58
53689;BME280;39583;54.682;30.662;2022-09-29T11:15:42;98519.38;;;15.71;68.90
53689;BME280;39583;54.682;30.662;2022-09-29T11:18:21;98516.44;;;15.62;69.07
53689;BME280;39583;54.682;30.662;2022-09-29T11:35:06;98541.69;;;14.97;70.55
53689;BME280;39583;54.682;30.662;2022-09-29T11:37:57;98537.91;;;14.88;70.60
53689;BME280;39583;54.682;30.662;2022-09-29T11:40:38;98544.66;;;14.80;70.96
53689;BME280;39583;54.682;30.662;2022-09-29T11:43:27;98541.69;;;14.71;71.22
53689;BME280;39583;54.682;30.662;2022-09-29T11:51:38;98540.78;;;14.40;72.36
53689;BME280;39583;54.682;30.662;2022-09-29T11:54:29;98543.75;;;14.34;72.77
53689;BME280;39583;54.682;30.662;2022-09-29T12:00:14;98549.44;;;14.42;73.13
53689;BME280;39583;54.682;30.662;2022-09-29T12:06:08;98563.56;;;14.44;73.21
53689;BME280;39583;54.682;30.662;2022-09-29T12:11:44;98562.16;;;14.42;73.59
53689;BME280;39583;54.682;30.662;2022-09-29T12:14:41;98563.78;;;14.38;73.55
53689;BME280;39583;54.682;30.662;2022-09-29T12:17:11;98570.56;;;14.35;73.81
53689;BME280;39583;54.682;30.662;2022-09-29T12:19:40;98570.50;;;14.25;73.91
53689;BME280;39583;54.682;30.662;2022-09-29T12:22:09;98569.16;;;14.23;74.43
53689;BME280;39583;54.682;30.662;2022-09-29T12:24:40;98571.56;;;14.19;74.62
53689;BME280;39583;54.682;30.662;2022-09-29T12:27:27;98567.47;;;14.11;74.98
53689;BME280;39583;54.682;30.662;2022-09-29T12:35:03;98574.19;;;13.99;75.71
53689;BME280;39583;54.682;30.662;2022-09-29T12:40:23;98570.63;;;13.93;76.46
53689;BME280;39583;54.682;30.662;2022-09-29T12:43:21;98572.03;;;13.96;76.66
53689;BME280;39583;54.682;30.662;2022-09-29T12:46:09;98577.94;;;13.93;76.59
53689;BME280;39583;54.682;30.662;2022-09-29T12:51:54;98576.91;;;13.99;77.16
53689;BME280;39583;54.682;30.662;2022-09-29T12:57:13;98565.03;;;14.10;77.23
53689;BME280;39583;54.682;30.662;2022-09-29T13:11:04;98566.38;;;14.07;77.97
53689;BME280;39583;54.682;30.662;2022-09-29T13:13:50;98563.16;;;14.10;78.25
53689;BME280;39583;54.682;30.662;2022-09-29T13:27:53;98544.22;;;14.15;78.25
53689;BME280;39583;54.682;30.662;2022-09-29T13:30:31;98541.28;;;14.22;78.21
53689;BME280;39583;54.682;30.662;2022-09-29T13:33:12;98536.66;;;14.28;77.97
53689;BME280;39583;54.682;30.662;2022-09-29T13:35:46;98544.53;;;14.29;77.92
53689;BME280;39583;54.682;30.662;2022-09-29T13:38:25;98547.78;;;14.31;77.88
53689;BME280;39583;54.682;30.662;2022-09-29T13:41:16;98540.22;;;14.33;77.56
53689;BME280;39583;54.682;30.662;2022-09-29T13:59:34;98517.75;;;14.33;76.50
53689;BME280;39583;54.682;30.662;2022-09-29T14:02:01;98528.91;;;14.47;76.63
53689;BME280;39583;54.682;30.662;2022-09-29T14:04:44;98531.91;;;14.50;76.63
53689;BME280;39583;54.682;30.662;2022-09-29T14:07:13;98538.13;;;14.51;76.51
53689;BME280;39583;54.682;30.662;2022-09-29T14:10:14;98540.00;;;14.50;76.41
53689;BME280;39583;54.682;30.662;2022-09-29T14:12:44;98532.16;;;14.49;76.73
53689;BME280;39583;54.682;30.662;2022-09-29T14:15:15;98547.06;;;14.46;76.65
53689;BME280;39583;54.682;30.662;2022-09-29T14:17:47;98514.22;;;14.37;76.63
53689;BME280;39583;54.682;30.662;2022-09-29T14:20:25;98529.94;;;14.40;76.44
53689;BME280;39583;54.682;30.662;2022-09-29T14:22:59;98546.19;;;14.40;76.65
53689;BME280;39583;54.682;30.662;2022-09-29T14:25:32;98544.28;;;14.36;76.47
53689;BME280;39583;54.682;30.662;2022-09-29T14:28:09;98538.56;;;14.27;76.88
53689;BME280;39583;54.682;30.662;2022-09-29T14:30:47;98542.09;;;14.28;77.05
53689;BME280;39583;54.682;30.662;2022-09-29T14:33:44;98539.38;;;14.23;77.08
53689;BME280;39583;54.682;30.662;2022-09-29T14:36:13;98553.19;;;14.21;77.13
53689;BME280;39583;54.682;30.662;2022-09-29T14:38:48;98556.41;;;14.18;77.54
53689;BME280;39583;54.682;30.662;2022-09-29T14:41:30;98550.16;;;14.12;77.75
53689;BME280;39583;54.682;30.662;2022-09-29T14:44:08;98553.09;;;14.06;77.91
53689;BME280;39583;54.682;30.662;2022-09-29T14:46:42;98543.63;;;14.03;78.13
53689;BME280;39583;54.682;30.662;2022-09-29T14:50:02;98552.53;;;13.99;77.91
53689;BME280;39583;54.682;30.662;2022-09-29T15:03:43;98555.47;;;13.92;78.27
53689;BME280;39583;54.682;30.662;2022-09-29T15:06:23;98546.25;;;13.88;78.10
53689;BME280;39583;54.682;30.662;2022-09-29T15:11:52;98551.44;;;13.95;78.15
53689;BME280;39583;54.682;30.662;2022-09-29T15:25:36;98564.19;;;13.99;77.48
53689;BME280;39583;54.682;30.662;2022-09-29T15:30:37;98573.38;;;13.98;77.15
53689;BME280;39583;54.682;30.662;2022-09-29T15:35:38;98583.13;;;14.04;76.89
53689;BME280;39583;54.682;30.662;2022-09-29T15:40:53;98593.41;;;14.02;77.18
53689;BME280;39583;54.682;30.662;2022-09-29T15:43:29;98598.56;;;13.99;77.20
53689;BME280;39583;54.682;30.662;2022-09-29T15:46:00;98601.53;;;13.97;77.19
53689;BME280;39583;54.682;30.662;2022-09-29T15:48:29;98601.25;;;13.94;77.51
53689;BME280;39583;54.682;30.662;2022-09-29T15:50:55;98588.75;;;13.87;77.53
53689;BME280;39583;54.682;30.662;2022-09-29T15:53:24;98603.09;;;13.88;77.71
53689;BME280;39583;54.682;30.662;2022-09-29T15:55:53;98597.41;;;13.90;77.70
53689;BME280;39583;54.682;30.662;2022-09-29T16:01:01;98613.38;;;13.91;77.75
53689;BME280;39583;54.682;30.662;2022-09-29T16:06:16;98628.53;;;13.92;77.59
53689;BME280;39583;54.682;30.662;2022-09-29T16:08:50;98629.63;;;13.91;77.90
53689;BME280;39583;54.682;30.662;2022-09-29T16:11:32;98629.06;;;13.89;77.89
53689;BME280;39583;54.682;30.662;2022-09-29T16:14:02;98636.09;;;13.90;78.01
53689;BME280;39583;54.682;30.662;2022-09-29T16:16:47;98624.44;;;13.84;77.94
53689;BME280;39583;54.682;30.662;2022-09-29T16:21:51;98641.25;;;13.86;78.09
53689;BME280;39583;54.682;30.662;2022-09-29T16:24:20;98647.72;;;13.85;78.21
53689;BME280;39583;54.682;30.662;2022-09-29T16:31:42;98650.97;;;13.87;78.68
53689;BME280;39583;54.682;30.662;2022-09-29T16:36:52;98657.19;;;13.83;78.85
53689;BME280;39583;54.682;30.662;2022-09-29T16:39:22;98655.28;;;13.83;79.26
53689;BME280;39583;54.682;30.662;2022-09-29T16:41:54;98654.75;;;13.86;79.08
53689;BME280;39583;54.682;30.662;2022-09-29T16:47:03;98656.19;;;13.94;78.87
53689;BME280;39583;54.682;30.662;2022-09-29T16:49:48;98659.44;;;13.96;78.47
53689;BME280;39583;54.682;30.662;2022-09-29T16:52:48;98668.63;;;13.95;78.64
53689;BME280;39583;54.682;30.662;2022-09-29T16:58:10;98672.66;;;13.93;78.57
53689;BME280;39583;54.682;30.662;2022-09-29T17:00:39;98666.44;;;13.92;78.46
53689;BME280;39583;54.682;30.662;2022-09-29T17:03:06;98663.97;;;13.91;78.83
53689;BME280;39583;54.682;30.662;2022-09-29T17:05:37;98667.78;;;13.90;78.87
53689;BME280;39583;54.682;30.662;2022-09-29T17:08:18;98664.50;;;13.87;78.78
53689;BME280;39583;54.682;30.662;2022-09-29T17:10:47;98668.28;;;13.86;78.91
53689;BME280;39583;54.682;30.662;2022-09-29T17:13:14;98673.97;;;13.85;78.92
53689;BME280;39583;54.682;30.662;2022-09-29T17:15:43;98695.06;;;13.83;78.89
53689;BME280;39583;54.682;30.662;2022-09-29T17:18:14;98703.91;;;13.73;78.78
53689;BME280;39583;54.682;30.662;2022-09-29T17:20:42;98708.56;;;13.46;79.04
53689;BME280;39583;54.682;30.662;2022-09-29T17:23:08;98698.34;;;13.26;79.88
53689;BME280;39583;54.682;30.662;2022-09-29T17:25:42;98678.19;;;13.12;80.99
53689;BME280;39583;54.682;30.662;2022-09-29T17:28:21;98692.09;;;13.20;81.25
53689;BME280;39583;54.682;30.662;2022-09-29T17:30:55;98690.19;;;13.21;81.46
53689;BME280;39583;54.682;30.662;2022-09-29T17:33:23;98689.06;;;13.17;81.41
53689;BME280;39583;54.682;30.662;2022-09-29T17:35:50;98695.59;;;13.21;81.76
53689;BME280;39583;54.682;30.662;2022-09-29T17:38:18;98702.66;;;13.22;81.77
53689;BME280;39583;54.682;30.662;2022-09-29T17:40:58;98705.34;;;13.22;81.76
53689;BME280;39583;54.682;30.662;2022-09-29T17:43:27;98706.97;;;13.23;81.94
53689;BME280;39583;54.682;30.662;2022-09-29T17:45:59;98723.50;;;13.26;81.81
53689;BME280;39583;54.682;30.662;2022-09-29T17:48:29;98730.69;;;13.16;81.50
53689;BME280;39583;54.682;30.662;2022-09-29T17:50:58;98730.81;;;13.04;82.05
53689;BME280;39583;54.682;30.662;2022-09-29T17:53:25;98715.97;;;13.07;82.85
53689;BME280;39583;54.682;30.662;2022-09-29T17:55:56;98751.81;;;12.97;82.39
53689;BME280;39583;54.682;30.662;2022-09-29T17:58:24;98739.19;;;12.81;82.94
53689;BME280;39583;54.682;30.662;2022-09-29T18:00:52;98738.38;;;12.80;83.60
53689;BME280;39583;54.682;30.662;2022-09-29T18:03:20;98728.69;;;12.84;83.69
53689;BME280;39583;54.682;30.662;2022-09-29T18:05:49;98721.41;;;12.85;83.67
53689;BME280;39583;54.682;30.662;2022-09-29T18:08:23;98724.66;;;12.87;83.83
53689;BME280;39583;54.682;30.662;2022-09-29T18:10:53;98724.72;;;12.92;83.97
53689;BME280;39583;54.682;30.662;2022-09-29T18:13:22;98719.38;;;12.97;83.98
53689;BME280;39583;54.682;30.662;2022-09-29T18:15:49;98729.75;;;13.05;83.95
53689;BME280;39583;54.682;30.662;2022-09-29T18:18:19;98735.34;;;12.98;83.63
53689;BME280;39583;54.682;30.662;2022-09-29T18:20:47;98706.22;;;12.79;83.90
53689;BME280;39583;54.682;30.662;2022-09-29T18:23:17;98728.19;;;12.87;84.31
53689;BME280;39583;54.682;30.662;2022-09-29T18:25:46;98741.88;;;12.81;84.05
53689;BME280;39583;54.682;30.662;2022-09-29T18:28:16;98748.47;;;12.68;84.35
53689;BME280;39583;54.682;30.662;2022-09-29T18:30:47;98736.31;;;12.65;84.78
53689;BME280;39583;54.682;30.662;2022-09-29T18:33:17;98727.44;;;12.70;85.01
53689;BME280;39583;54.682;30.662;2022-09-29T18:35:51;98744.47;;;12.70;85.08
53689;BME280;39583;54.682;30.662;2022-09-29T18:38:18;98757.91;;;12.65;84.72
53689;BME280;39583;54.682;30.662;2022-09-29T18:40:45;98756.94;;;12.55;85.05
53689;BME280;39583;54.682;30.662;2022-09-29T18:43:13;98746.97;;;12.55;85.38
53689;BME280;39583;54.682;30.662;2022-09-29T18:45:41;98748.44;;;12.46;85.32
53689;BME280;39583;54.682;30.662;2022-09-29T18:48:11;98742.25;;;12.46;85.24
53689;BME280;39583;54.682;30.662;2022-09-29T18:50:56;98744.78;;;12.35;84.86
53689;BME280;39583;54.682;30.662;2022-09-29T18:53:23;98747.94;;;12.27;85.22
53689;BME280;39583;54.682;30.662;2022-09-29T18:55:54;98752.84;;;12.30;85.34
53689;BME280;39583;54.682;30.662;2022-09-29T18:58:24;98754.47;;;12.31;85.11
53689;BME280;39583;54.682;30.662;2022-09-29T19:00:53;98774.28;;;12.20;84.91
53689;BME280;39583;54.682;30.662;2022-09-29T19:03:22;98775.09;;;12.04;85.00
53689;BME280;39583;54.682;30.662;2022-09-29T19:05:50;98776.50;;;11.90;85.50
53689;BME280;39583;54.682;30.662;2022-09-29T19:08:18;98779.09;;;11.85;85.71
53689;BME280;39583;54.682;30.662;2022-09-29T19:10:51;98786.50;;;11.77;85.83
53689;BME280;39583;54.682;30.662;2022-09-29T19:13:20;98791.34;;;11.75;85.87
53689;BME280;39583;54.682;30.662;2022-09-29T19:15:47;98788.53;;;11.70;86.04
53689;BME280;39583;54.682;30.662;2022-09-29T19:18:17;98790.16;;;11.71;86.08
53689;BME280;39583;54.682;30.662;2022-09-29T19:20:53;98786.75;;;11.76;86.13
53689;BME280;39583;54.682;30.662;2022-09-29T19:23:22;98785.22;;;11.80;86.01
53689;BME280;39583;54.682;30.662;2022-09-29T19:25:50;98785.44;;;11.78;85.70
53689;BME280;39583;54.682;30.662;2022-09-29T19:28:18;98782.44;;;11.75;85.90
53689;BME280;39583;54.682;30.662;2022-09-29T19:30:45;98781.38;;;11.76;85.73
53689;BME280;39583;54.682;30.662;2022-09-29T19:33:16;98780.91;;;11.79;85.89
53689;BME280;39583;54.682;30.662;2022-09-29T19:35:48;98788.50;;;11.82;86.18
53689;BME280;39583;54.682;30.662;2022-09-29T19:38:17;98792.81;;;11.83;86.20
53689;BME280;39583;54.682;30.662;2022-09-29T19:40:45;98789.88;;;11.85;86.02
53689;BME280;39583;54.682;30.662;2022-09-29T19:43:12;98797.75;;;11.86;86.14
53689;BME280;39583;54.682;30.662;2022-09-29T19:45:40;98783.00;;;11.77;85.86
53689;BME280;39583;54.682;30.662;2022-09-29T19:48:12;98792.16;;;11.76;86.10
53689;BME280;39583;54.682;30.662;2022-09-29T19:50:39;98781.09;;;11.61;86.12
53689;BME280;39583;54.682;30.662;2022-09-29T19:53:23;98815.47;;;11.82;86.74
53689;BME280;39583;54.682;30.662;2022-09-29T19:55:50;98828.00;;;11.88;86.49
53689;BME280;39583;54.682;30.662;2022-09-29T19:58:18;98829.63;;;11.89;86.34
53689;BME280;39583;54.682;30.662;2022-09-29T20:00:44;98843.38;;;11.88;86.41
53689;BME280;39583;54.682;30.662;2022-09-29T20:03:11;98843.97;;;11.78;86.33
53689;BME280;39583;54.682;30.662;2022-09-29T20:05:37;98844.84;;;11.67;86.50
53689;BME280;39583;54.682;30.662;2022-09-29T20:08:05;98848.66;;;11.54;86.72
53689;BME280;39583;54.682;30.662;2022-09-29T20:10:32;98843.88;;;11.44;86.86
53689;BME280;39583;54.682;30.662;2022-09-29T20:12:58;98849.19;;;11.39;87.40
53689;BME280;39583;54.682;30.662;2022-09-29T20:15:25;98853.59;;;11.45;87.29
53689;BME280;39583;54.682;30.662;2022-09-29T20:17:52;98861.47;;;11.47;87.42
53689;BME280;39583;54.682;30.662;2022-09-29T20:20:19;98856.88;;;11.47;87.69
53689;BME280;39583;54.682;30.662;2022-09-29T20:22:49;98853.25;;;11.42;87.64
53689;BME280;39583;54.682;30.662;2022-09-29T20:25:16;98840.28;;;11.39;87.76
53689;BME280;39583;54.682;30.662;2022-09-29T20:27:44;98858.03;;;11.51;88.05
53689;BME280;39583;54.682;30.662;2022-09-29T20:30:10;98846.44;;;11.51;87.91
53689;BME280;39583;54.682;30.662;2022-09-29T20:32:37;98857.66;;;11.60;88.07
53689;BME280;39583;54.682;30.662;2022-09-29T20:35:04;98862.81;;;11.61;87.68
53689;BME280;39583;54.682;30.662;2022-09-29T20:37:30;98864.09;;;11.59;87.42
53689;BME280;39583;54.682;30.662;2022-09-29T20:39:57;98866.31;;;11.62;87.91
53689;BME280;39583;54.682;30.662;2022-09-29T20:42:24;98868.28;;;11.66;87.71
53689;BME280;39583;54.682;30.662;2022-09-29T20:44:50;98871.56;;;11.68;87.70
53689;BME280;39583;54.682;30.662;2022-09-29T20:47:22;98867.81;;;11.69;87.57
53689;BME280;39583;54.682;30.662;2022-09-29T20:49:52;98868.63;;;11.70;87.76
53689;BME280;39583;54.682;30.662;2022-09-29T20:52:19;98870.03;;;11.72;87.65
53689;BME280;39583;54.682;30.662;2022-09-29T20:54:45;98859.81;;;11.74;87.46
53689;BME280;39583;54.682;30.662;2022-09-29T20:57:13;98873.06;;;11.76;87.45
53689;BME280;39583;54.682;30.662;2022-09-29T20:59:41;98862.03;;;11.77;87.19
53689;BME280;39583;54.682;30.662;2022-09-29T21:02:12;98860.63;;;11.75;87.35
53689;BME280;39583;54.682;30.662;2022-09-29T21:04:38;98857.25;;;11.68;87.68
53689;BME280;39583;54.682;30.662;2022-09-29T21:07:04;98874.44;;;11.78;87.84
53689;BME280;39583;54.682;30.662;2022-09-29T21:09:51;98866.72;;;11.82;87.76
53689;BME280;39583;54.682;30.662;2022-09-29T21:12:17;98874.56;;;11.84;87.29
53689;BME280;39583;54.682;30.662;2022-09-29T21:14:44;98865.66;;;11.83;87.50
53689;BME280;39583;54.682;30.662;2022-09-29T21:17:14;98866.81;;;11.87;87.27
53689;BME280;39583;54.682;30.662;2022-09-29T21:19:40;98873.84;;;11.88;87.13
53689;BME280;39583;54.682;30.662;2022-09-29T21:22:06;98867.66;;;11.88;87.57
53689;BME280;39583;54.682;30.662;2022-09-29T21:24:35;98866.59;;;11.89;87.46
53689;BME280;39583;54.682;30.662;2022-09-29T21:27:09;98876.06;;;11.91;87.34
53689;BME280;39583;54.682;30.662;2022-09-29T21:29:37;98876.63;;;11.93;87.50
53689;BME280;39583;54.682;30.662;2022-09-29T21:32:05;98884.22;;;11.96;87.34
53689;BME280;39583;54.682;30.662;2022-09-29T21:34:34;98874.25;;;11.97;87.22
53689;BME280;39583;54.682;30.662;2022-09-29T21:37:06;98871.34;;;11.98;87.45
53689;BME280;39583;54.682;30.662;2022-09-29T21:39:35;98869.47;;;11.99;87.53
53689;BME280;39583;54.682;30.662;2022-09-29T21:42:01;98869.47;;;11.99;87.22
53689;BME280;39583;54.682;30.662;2022-09-29T21:44:27;98876.50;;;12.00;87.20
53689;BME280;39583;54.682;30.662;2022-09-29T21:46:54;98881.66;;;12.01;87.18
53689;BME280;39583;54.682;30.662;2022-09-29T21:49:20;98878.94;;;12.01;87.33
53689;BME280;39583;54.682;30.662;2022-09-29T21:51:48;98871.66;;;12.02;87.37
53689;BME280;39583;54.682;30.662;2022-09-29T21:54:17;98850.72;;;11.92;87.01
53689;BME280;39583;54.682;30.662;2022-09-29T21:56:44;98875.69;;;11.99;87.07
53689;BME280;39583;54.682;30.662;2022-09-29T21:59:14;98884.34;;;12.01;87.05
53689;BME280;39583;54.682;30.662;2022-09-29T22:01:51;98882.72;;;12.00;87.01
53689;BME280;39583;54.682;30.662;2022-09-29T22:04:23;98876.50;;;12.00;87.03
53689;BME280;39583;54.682;30.662;2022-09-29T22:06:49;98881.88;;;12.00;87.04
53689;BME280;39583;54.682;30.662;2022-09-29T22:09:26;98884.59;;;12.00;87.12
53689;BME280;39583;54.682;30.662;2022-09-29T22:12:10;98886.78;;;12.03;87.11
53689;BME280;39583;54.682;30.662;2022-09-29T22:14:44;98890.31;;;12.03;87.00
